Deer Park, AL (36529)

12:02 PM CDT on May 30, 2015 (GMT -0500)
York Hill Gulfcrest, Alabama | | Change Station
CLOSE
Current Station
Personal Weather Station
Location: Chunchula, AL
Elevation: 190 ft
Nearby Weather Stations

Elev 190 ft 30.99 °N, 88.24 °W | Updated 7 minutes ago

Partly Cloudy
Partly Cloudy
92.8 °F
Feels Like 97 °F
N
0.0
Wind Variable Wind from SSE

Today
High -- | Low -- °F
--% Chance of Precip.
Yesterday
High -- | Low -- °F
Precip. -- in
5:50 AM 7:51 PM
Waxing Gibbous, 91% visible
Pressure 30.10 in
Visibility 10.0 miles
Clouds Few 3300 ft
Scattered Clouds 18000 ft
Mostly Cloudy 25000 ft
Heat Index 97 °F
Dew Point 68 °F
Humidity 44%
Rainfall 0.00 in
Snow Depth Not available.
UV 7 out of 12
Pollen 4.30 out of 12
Air Quality Not available.
Flu Activity Sporadic
METAR KMOB 301656Z 16010KT 10SM FEW033 SCT180 BKN250 29/17 A3011 RMK AO2 SLP193 TCU DSNT E-SE AND SW-W T02890172

More Conditions Fewer Conditions

Pressure 30.10 in
Visibility 10.0 miles
Clouds Few 3300 ft
Scattered Clouds 18000 ft
Mostly Cloudy 25000 ft
Heat Index 97 °F
Dew Point 68 °F
Humidity 44%
Rainfall 0.00 in
Snow Depth Not available.
UV 7 out of 12
Pollen 4.30 out of 12
Air Quality Not available.
Flu Activity Sporadic
METAR KMOB 301656Z 16010KT 10SM FEW033 SCT180 BKN250 29/17 A3011 RMK AO2 SLP193 TCU DSNT E-SE AND SW-W T02890172

More Conditions Fewer Conditions

10-Day Weather Forecast

Almanac

Astronomy

May. 30, 2015 Rise Set
Actual Time
Civil Twilight
Nautical Twilight
Astronomical Twilight
Moon
Length of Visible Light
Length of Day
Tomorrow will be .
, % of the Moon is Illuminated

Today's Extremes

State Highs State Lows

Community

WunderPhotos

Upload Photos

1,825,571 photos uploaded!

WunderBlogs® & News

Nearby

Air Quality

  Air Quality AQ Index Pollutant
Not available.

Snow Depth

Station Depth Elevation

Earthquake Activity

City Distance Mag. Time & Date
Minimum magnitude displayed is 2.5.

Coastal Water Temperatures

Place Temperature

Stations

Nearby Weather Stations

Station Location Temp. Windchill Dew Point Humidity Wind Precip. Elev Updated Type